createdAt,value
2023-03-20T00:00:55.544Z,71.11
2023-03-20T00:03:22.058Z,71.28
2023-03-20T00:05:49.224Z,70.81
2023-03-20T00:08:15.695Z,70.60
2023-03-20T00:10:43.753Z,70.80
2023-03-20T00:13:15.766Z,70.98
2023-03-20T00:15:43.187Z,71.48
2023-03-20T00:18:20.586Z,72.04
2023-03-20T00:20:47.538Z,71.51
2023-03-20T00:23:14.360Z,71.32
2023-03-20T00:25:41.788Z,71.08
2023-03-20T00:28:28.666Z,71.50
2023-03-20T00:30:55.163Z,71.89
2023-03-20T00:33:21.583Z,71.78
2023-03-20T00:35:48.142Z,71.91
2023-03-20T00:38:14.588Z,71.44
2023-03-20T00:40:41.313Z,72.51
2023-03-20T00:43:10.550Z,72.43
2023-03-20T00:45:37.162Z,71.90
2023-03-20T00:48:03.839Z,71.92
2023-03-20T00:50:31.030Z,71.89
2023-03-20T00:52:58.156Z,71.52
2023-03-20T00:55:27.230Z,72.03
2023-03-20T00:57:56.507Z,71.98
2023-03-20T01:00:27.658Z,71.97
2023-03-20T01:02:55.148Z,71.58
2023-03-20T01:05:22.169Z,72.31
2023-03-20T01:07:49.022Z,72.09
2023-03-20T01:10:15.868Z,71.55
2023-03-20T01:12:43.212Z,72.15
2023-03-20T01:15:29.881Z,71.99
2023-03-20T01:17:56.353Z,72.07
2023-03-20T01:20:24.247Z,72.55
2023-03-20T01:22:50.869Z,71.95
2023-03-20T01:25:17.864Z,72.03
2023-03-20T01:27:50.491Z,72.55
2023-03-20T01:30:19.162Z,72.51
2023-03-20T01:32:46.496Z,73.04
2023-03-20T01:35:14.398Z,72.75
2023-03-20T01:37:41.501Z,72.58
2023-03-20T01:40:30.826Z,72.57
2023-03-20T01:42:57.319Z,72.91
2023-03-20T01:45:26.547Z,72.22
2023-03-20T01:47:53.182Z,72.48
2023-03-20T01:50:22.901Z,72.77
2023-03-20T01:52:52.070Z,73.01
2023-03-20T01:55:19.472Z,73.14
2023-03-20T01:57:46.282Z,72.96
2023-03-20T02:00:16.777Z,72.86
2023-03-20T02:02:45.256Z,72.86
2023-03-20T02:05:13.252Z,73.48
2023-03-20T02:07:39.984Z,73.24
2023-03-20T02:10:09.680Z,73.23
2023-03-20T02:12:36.431Z,73.38
2023-03-20T02:15:03.663Z,73.67
2023-03-20T02:17:30.169Z,73.64
2023-03-20T02:20:15.388Z,74.07
2023-03-20T02:23:00.745Z,74.43
2023-03-20T02:25:30.513Z,73.95
2023-03-20T02:28:15.497Z,74.11
2023-03-20T02:31:07.249Z,73.98
2023-03-20T02:33:43.122Z,74.40
2023-03-20T02:36:09.523Z,73.94
2023-03-20T02:38:52.222Z,74.63
2023-03-20T02:41:33.295Z,74.56
2023-03-20T02:44:05.766Z,74.70
2023-03-20T02:46:37.401Z,74.78
2023-03-20T02:49:11.707Z,75.03
2023-03-20T02:51:41.881Z,75.40
2023-03-20T02:54:18.817Z,75.74
2023-03-20T02:56:59.695Z,75.30
2023-03-20T02:59:37.743Z,75.82
2023-03-20T03:02:07.504Z,75.56
2023-03-20T03:04:42.099Z,75.60
2023-03-20T03:07:10.171Z,75.65
2023-03-20T03:09:51.529Z,75.40
2023-03-20T03:12:20.730Z,75.93
2023-03-20T03:14:52.975Z,75.64
2023-03-20T03:17:22.189Z,75.82
2023-03-20T03:19:51.006Z,76.61
2023-03-20T03:22:18.002Z,75.95
2023-03-20T03:24:46.030Z,76.47
2023-03-20T03:27:18.976Z,75.82
2023-03-20T03:29:49.035Z,75.51
2023-03-20T03:32:30.731Z,75.48
2023-03-20T03:34:57.692Z,75.46
2023-03-20T03:37:33.349Z,75.52
2023-03-20T03:40:02.585Z,75.89
2023-03-20T03:42:38.286Z,75.68
2023-03-20T03:45:14.883Z,76.14
2023-03-20T03:47:53.416Z,75.84
2023-03-20T03:50:19.882Z,75.20
2023-03-20T03:52:46.924Z,75.47
2023-03-20T03:55:21.685Z,74.91
2023-03-20T03:57:54.513Z,74.93
2023-03-20T04:00:23.845Z,75.27
2023-03-20T04:02:53.064Z,75.32
2023-03-20T04:05:21.112Z,74.48
2023-03-20T04:07:48.391Z,74.31
2023-03-20T04:10:15.114Z,74.80
2023-03-20T04:12:42.823Z,74.68
2023-03-20T04:15:09.778Z,74.63
2023-03-20T04:17:36.528Z,74.89
2023-03-20T04:20:04.035Z,74.97
2023-03-20T04:22:31.233Z,75.45
2023-03-20T04:24:58.464Z,75.42
2023-03-20T04:27:24.917Z,75.33
2023-03-20T04:29:51.382Z,74.87
2023-03-20T04:32:17.899Z,75.71
2023-03-20T04:34:44.339Z,75.10
2023-03-20T04:37:10.797Z,75.01
2023-03-20T04:39:37.520Z,75.04
2023-03-20T04:42:04.728Z,75.89
2023-03-20T04:44:31.273Z,75.34
2023-03-20T04:46:58.241Z,75.70
2023-03-20T04:49:24.764Z,76.04
2023-03-20T04:51:51.208Z,76.02
2023-03-20T04:54:17.773Z,76.13
2023-03-20T04:56:44.414Z,76.32
2023-03-20T04:59:10.868Z,76.11
2023-03-20T05:01:37.313Z,76.57
2023-03-20T05:04:03.859Z,76.68
2023-03-20T05:06:31.718Z,76.72
2023-03-20T05:08:59.186Z,76.77
2023-03-20T05:11:26.368Z,76.39
2023-03-20T05:13:52.881Z,76.84
2023-03-20T05:16:19.353Z,77.30
2023-03-20T05:18:45.860Z,77.28
2023-03-20T05:21:12.592Z,77.32
2023-03-20T05:23:39.070Z,76.86
2023-03-20T05:26:05.668Z,76.72
2023-03-20T05:28:32.227Z,76.78
2023-03-20T05:30:58.792Z,77.19
2023-03-20T05:33:25.398Z,77.68
2023-03-20T05:35:51.886Z,76.97
2023-03-20T05:38:22.627Z,76.66
2023-03-20T05:40:49.625Z,77.40
2023-03-20T05:43:16.207Z,77.33
2023-03-20T05:45:42.845Z,76.68
2023-03-20T05:48:09.319Z,77.56
2023-03-20T05:50:36.203Z,78.29
2023-03-20T05:53:05.782Z,77.90
2023-03-20T05:55:33.336Z,78.42
2023-03-20T05:57:59.891Z,79.21
2023-03-20T06:00:26.457Z,78.97
2023-03-20T06:02:53.038Z,78.40
2023-03-20T06:05:19.487Z,78.55
2023-03-20T06:07:45.936Z,78.73
2023-03-20T06:10:12.470Z,77.88
2023-03-20T06:12:39.063Z,78.47
2023-03-20T06:15:05.801Z,78.15
2023-03-20T06:17:32.298Z,78.11
2023-03-20T06:19:58.785Z,79.05
2023-03-20T06:22:25.313Z,79.48
2023-03-20T06:24:52.017Z,79.34
2023-03-20T06:27:18.665Z,79.49
2023-03-20T06:29:45.101Z,78.58
2023-03-20T06:32:12.451Z,78.27
2023-03-20T06:34:38.890Z,80.46
2023-03-20T06:37:05.428Z,81.29
2023-03-20T06:39:32.294Z,80.12
2023-03-20T06:41:58.803Z,79.94
2023-03-20T06:44:25.535Z,81.18
2023-03-20T06:46:52.059Z,80.19
2023-03-20T06:49:18.767Z,81.69
2023-03-20T06:51:47.651Z,81.35
2023-03-20T06:54:14.585Z,81.06
2023-03-20T06:56:41.055Z,81.51
2023-03-20T06:59:07.535Z,81.47
2023-03-20T07:01:34.048Z,81.78
2023-03-20T07:04:01.256Z,81.13
2023-03-20T07:06:28.074Z,81.78
2023-03-20T07:08:54.851Z,81.13
2023-03-20T07:11:21.280Z,79.88
2023-03-20T07:13:49.830Z,80.46
2023-03-20T07:16:17.249Z,81.06
2023-03-20T07:18:43.709Z,80.43
2023-03-20T07:21:11.531Z,80.34
2023-03-20T07:23:38.020Z,80.10
2023-03-20T07:26:05.523Z,79.07
2023-03-20T07:28:32.022Z,79.20
2023-03-20T07:30:58.521Z,79.58
2023-03-20T07:33:25.043Z,79.11
2023-03-20T07:35:54.970Z,80.26
2023-03-20T07:38:22.138Z,79.20
2023-03-20T07:40:49.124Z,78.69
2023-03-20T07:43:16.286Z,78.27
2023-03-20T07:45:42.986Z,77.83
2023-03-20T07:48:09.491Z,78.07
2023-03-20T07:50:36.190Z,78.00
2023-03-20T07:53:03.495Z,77.65
2023-03-20T07:55:29.992Z,77.50
2023-03-20T07:57:56.610Z,77.56
2023-03-20T08:00:23.152Z,76.81
2023-03-20T08:02:49.920Z,76.16
2023-03-20T08:05:16.529Z,76.04
2023-03-20T08:07:43.208Z,75.16
2023-03-20T08:10:12.162Z,74.24
2023-03-20T08:12:38.619Z,73.97
2023-03-20T08:15:05.641Z,73.45
2023-03-20T08:17:32.295Z,73.86
2023-03-20T08:19:58.801Z,73.59
2023-03-20T08:22:25.536Z,73.01
2023-03-20T08:24:52.050Z,72.24
2023-03-20T08:27:18.611Z,71.68
2023-03-20T08:29:45.094Z,71.71
2023-03-20T08:32:11.784Z,70.58
2023-03-20T08:34:38.242Z,70.82
2023-03-20T08:37:05.016Z,70.25
2023-03-20T08:39:33.249Z,70.70
2023-03-20T08:42:01.083Z,70.17
2023-03-20T08:44:27.908Z,70.08
2023-03-20T08:46:55.155Z,69.26
2023-03-20T08:49:21.745Z,68.32
2023-03-20T08:51:48.219Z,68.45
2023-03-20T08:54:16.320Z,67.55
2023-03-20T08:56:42.745Z,66.60
2023-03-20T08:59:09.205Z,66.12
2023-03-20T09:01:48.772Z,66.14
2023-03-20T09:04:16.054Z,64.15
2023-03-20T09:06:42.546Z,63.35
2023-03-20T09:09:08.972Z,63.09
2023-03-20T09:11:37.052Z,62.28
2023-03-20T09:14:03.522Z,62.24
2023-03-20T09:16:30.222Z,60.08
2023-03-20T09:18:56.846Z,59.64
2023-03-20T09:21:23.277Z,58.38
2023-03-20T09:23:49.757Z,58.37
2023-03-20T09:26:16.897Z,58.75
2023-03-20T09:28:43.354Z,58.38
2023-03-20T09:31:09.810Z,56.10
2023-03-20T09:33:36.328Z,56.83
2023-03-20T09:36:02.990Z,56.54
2023-03-20T09:38:29.486Z,56.63
2023-03-20T09:40:57.461Z,56.30
2023-03-20T09:43:26.642Z,55.39
2023-03-20T09:46:19.830Z,55.28
2023-03-20T09:48:46.349Z,54.45
2023-03-20T09:51:16.088Z,53.18
2023-03-20T09:53:46.418Z,52.40
2023-03-20T09:56:25.134Z,52.57
2023-03-20T09:58:54.646Z,53.41
2023-03-20T10:01:22.629Z,52.54
2023-03-20T10:04:00.570Z,53.00
2023-03-20T10:06:27.187Z,52.62
2023-03-20T10:08:55.231Z,52.01
2023-03-20T10:11:27.931Z,52.50
2023-03-20T10:14:16.233Z,52.49
2023-03-20T10:16:49.282Z,52.34
2023-03-20T10:19:28.361Z,52.07
2023-03-20T10:22:15.528Z,51.37
2023-03-20T10:24:46.667Z,50.26
2023-03-20T10:27:18.563Z,50.96
2023-03-20T10:29:54.509Z,49.45
2023-03-20T10:32:26.281Z,50.87
2023-03-20T10:35:04.685Z,50.50
2023-03-20T10:37:51.361Z,50.22
2023-03-20T10:40:25.024Z,49.57
2023-03-20T10:42:52.673Z,47.77
2023-03-20T10:45:25.502Z,49.29
2023-03-20T10:47:52.508Z,47.65
2023-03-20T10:50:21.802Z,48.30
2023-03-20T10:52:49.621Z,48.47
2023-03-20T10:55:18.808Z,46.06
2023-03-20T10:57:48.410Z,47.24
2023-03-20T11:00:22.529Z,48.09
2023-03-20T11:02:48.997Z,49.01
2023-03-20T11:05:25.073Z,46.98
2023-03-20T11:08:01.535Z,46.75
2023-03-20T11:10:28.074Z,44.95
2023-03-20T11:12:54.542Z,46.58
2023-03-20T11:15:23.242Z,44.71
2023-03-20T11:17:57.719Z,45.30
2023-03-20T11:20:25.819Z,45.38
2023-03-20T11:22:58.940Z,45.34
2023-03-20T11:25:45.798Z,43.75
2023-03-20T11:28:38.801Z,43.55
2023-03-20T11:31:07.371Z,43.45
2023-03-20T11:33:37.670Z,43.40
2023-03-20T11:36:10.058Z,43.27
2023-03-20T11:38:42.970Z,42.00
2023-03-20T11:41:19.948Z,41.38
2023-03-20T11:43:46.537Z,43.12
2023-03-20T11:46:13.426Z,42.95
2023-03-20T11:48:41.277Z,42.73
2023-03-20T11:51:09.920Z,42.90
2023-03-20T11:53:40.374Z,41.54
2023-03-20T11:56:07.014Z,42.27
2023-03-20T11:58:34.807Z,41.65
2023-03-20T12:01:01.754Z,42.42
2023-03-20T12:03:37.106Z,42.21
2023-03-20T12:06:06.120Z,41.94
2023-03-20T12:08:34.967Z,43.23
2023-03-20T12:11:07.111Z,41.82
2023-03-20T12:13:36.373Z,42.62
2023-03-20T12:16:04.282Z,42.35
2023-03-20T12:18:49.072Z,42.16
2023-03-20T12:21:23.084Z,41.73
2023-03-20T12:23:56.350Z,42.28
2023-03-20T12:26:29.012Z,40.51
2023-03-20T12:29:17.904Z,40.96
2023-03-20T12:31:48.268Z,40.57
2023-03-20T12:34:18.502Z,41.60
2023-03-20T12:36:47.151Z,42.21
2023-03-20T12:39:18.585Z,42.26
2023-03-20T12:42:04.792Z,41.34
2023-03-20T12:44:38.328Z,40.84
2023-03-20T12:47:19.867Z,41.10
2023-03-20T12:49:46.549Z,41.16
2023-03-20T12:52:12.967Z,40.94
2023-03-20T12:55:18.065Z,40.80
2023-03-20T12:58:07.407Z,39.98
2023-03-20T13:00:38.386Z,40.73
2023-03-20T13:03:11.072Z,38.53
2023-03-20T13:05:42.889Z,39.10
2023-03-20T13:08:12.714Z,38.94
2023-03-20T13:10:39.758Z,39.17
2023-03-20T13:13:09.415Z,39.55
2023-03-20T13:15:47.631Z,40.32
2023-03-20T13:18:16.819Z,39.86
2023-03-20T13:20:55.332Z,40.27
2023-03-20T13:23:26.094Z,39.92
2023-03-20T13:26:04.696Z,39.85
2023-03-20T13:28:53.809Z,40.68
2023-03-20T13:31:39.248Z,39.60
2023-03-20T13:34:31.886Z,40.90
2023-03-20T13:37:23.369Z,41.24
2023-03-20T13:40:02.589Z,41.51
2023-03-20T13:42:36.916Z,40.60
2023-03-20T13:45:12.476Z,39.86
2023-03-20T13:47:39.354Z,40.00
2023-03-20T13:50:06.222Z,40.73
2023-03-20T13:52:38.497Z,41.35
2023-03-20T13:55:20.226Z,41.21
2023-03-20T13:58:04.568Z,40.16
2023-03-20T14:00:40.240Z,40.42
2023-03-20T14:03:17.324Z,41.27
2023-03-20T14:05:44.263Z,41.15
2023-03-20T14:08:22.922Z,40.60
2023-03-20T14:10:55.542Z,41.26
2023-03-20T14:13:22.246Z,42.32
2023-03-20T14:15:54.249Z,42.49
2023-03-20T14:18:22.862Z,42.63
2023-03-20T14:20:57.492Z,43.02
2023-03-20T14:23:32.516Z,42.97
2023-03-20T14:25:59.677Z,43.14
2023-03-20T14:28:28.088Z,43.80
2023-03-20T14:31:21.024Z,43.61
2023-03-20T14:33:53.428Z,43.75
2023-03-20T14:36:26.585Z,43.85
2023-03-20T14:39:11.180Z,44.51
2023-03-20T14:41:56.516Z,44.56
2023-03-20T14:44:22.952Z,44.80
2023-03-20T14:46:56.424Z,45.16
2023-03-20T14:49:41.544Z,45.90
2023-03-20T14:52:20.449Z,46.43
2023-03-20T14:54:54.091Z,47.02
2023-03-20T14:57:35.734Z,47.58
2023-03-20T15:00:17.343Z,48.61
2023-03-20T15:02:46.392Z,48.44
2023-03-20T15:05:26.310Z,48.93
2023-03-20T15:07:52.955Z,49.18
2023-03-20T15:10:19.866Z,49.66
2023-03-20T15:12:46.950Z,50.74
2023-03-20T15:15:31.697Z,50.49
2023-03-20T15:18:14.210Z,50.60
2023-03-20T15:20:44.073Z,50.70
2023-03-20T15:23:10.683Z,50.94
2023-03-20T15:25:37.098Z,51.38
2023-03-20T15:28:06.251Z,51.51
2023-03-20T15:30:33.988Z,51.69
2023-03-20T15:33:00.961Z,51.93
2023-03-20T15:35:27.788Z,52.06
2023-03-20T15:37:56.279Z,51.91
2023-03-20T15:40:24.598Z,52.22
2023-03-20T15:43:14.344Z,52.25
2023-03-20T15:45:42.610Z,52.64
2023-03-20T15:48:12.566Z,52.57
2023-03-20T15:50:41.352Z,52.96
2023-03-20T15:53:14.270Z,52.92
2023-03-20T15:55:40.885Z,52.95
2023-03-20T15:58:07.647Z,53.19
2023-03-20T16:00:36.930Z,53.23
2023-03-20T16:03:05.672Z,53.65
2023-03-20T16:05:32.502Z,53.66
2023-03-20T16:08:11.785Z,53.77
2023-03-20T16:10:41.714Z,54.30
2023-03-20T16:13:12.994Z,54.48
2023-03-20T16:15:40.162Z,54.60
2023-03-20T16:18:07.221Z,54.38
2023-03-20T16:20:37.343Z,54.55
2023-03-20T16:23:06.048Z,54.40
2023-03-20T16:25:34.054Z,55.29
2023-03-20T16:28:00.659Z,55.54
2023-03-20T16:30:30.353Z,56.68
2023-03-20T16:33:16.954Z,56.34
2023-03-20T16:35:45.179Z,57.32
2023-03-20T16:38:16.678Z,56.85
2023-03-20T16:40:43.278Z,57.37
2023-03-20T16:43:14.056Z,57.79
2023-03-20T16:45:44.245Z,58.61
2023-03-20T16:48:11.148Z,58.25
2023-03-20T16:50:41.702Z,60.25
2023-03-20T16:53:28.486Z,59.21
2023-03-20T16:55:56.316Z,59.02
2023-03-20T16:58:33.381Z,59.29
2023-03-20T17:00:59.918Z,59.01
2023-03-20T17:03:28.104Z,58.90
2023-03-20T17:06:05.496Z,58.93
2023-03-20T17:08:37.815Z,59.41
2023-03-20T17:11:09.287Z,59.36
2023-03-20T17:13:35.929Z,59.40
2023-03-20T17:16:02.573Z,59.98
2023-03-20T17:18:29.771Z,59.81
2023-03-20T17:20:56.314Z,59.86
2023-03-20T17:23:23.303Z,60.27
2023-03-20T17:25:50.627Z,60.61
2023-03-20T17:28:20.002Z,60.53
2023-03-20T17:30:47.129Z,61.03
2023-03-20T17:33:14.554Z,61.12
2023-03-20T17:35:41.380Z,61.80
2023-03-20T17:38:14.937Z,61.67
2023-03-20T17:40:41.458Z,61.35
2023-03-20T17:43:11.704Z,61.58
2023-03-20T17:45:38.417Z,61.43
2023-03-20T17:48:04.947Z,62.12
2023-03-20T17:50:31.441Z,62.12
2023-03-20T17:52:58.078Z,62.12
2023-03-20T17:55:24.539Z,62.48
2023-03-20T17:57:51.012Z,62.53
2023-03-20T18:00:22.599Z,62.78
2023-03-20T18:02:49.424Z,62.92
2023-03-20T18:05:15.985Z,62.90
2023-03-20T18:07:42.524Z,62.79
2023-03-20T18:10:25.620Z,62.83
2023-03-20T18:12:52.059Z,62.82
2023-03-20T18:15:18.641Z,63.79
2023-03-20T18:17:45.154Z,63.88
2023-03-20T18:20:31.491Z,63.97
2023-03-20T18:22:58.381Z,64.27
2023-03-20T18:25:28.334Z,63.96
2023-03-20T18:27:56.049Z,64.00
2023-03-20T18:30:24.212Z,63.82
2023-03-20T18:32:50.816Z,64.30
2023-03-20T18:35:17.433Z,64.61
2023-03-20T18:37:44.274Z,64.70
2023-03-20T18:40:21.537Z,64.64
2023-03-20T18:42:48.069Z,64.71
2023-03-20T18:45:14.825Z,64.56
2023-03-20T18:47:41.541Z,64.73
2023-03-20T18:50:37.535Z,64.60
2023-03-20T18:53:05.503Z,64.77
2023-03-20T18:55:32.039Z,65.27
2023-03-20T18:57:58.833Z,65.22
2023-03-20T19:00:27.527Z,65.03
2023-03-20T19:02:55.534Z,65.25
2023-03-20T19:05:22.979Z,65.23
2023-03-20T19:07:49.564Z,65.06
2023-03-20T19:10:25.808Z,65.42
2023-03-20T19:12:53.182Z,65.05
2023-03-20T19:15:20.373Z,65.39
2023-03-20T19:17:46.909Z,65.48
2023-03-20T19:20:26.338Z,65.59
2023-03-20T19:22:52.883Z,65.46
2023-03-20T19:25:19.367Z,65.33
2023-03-20T19:27:46.441Z,65.48
2023-03-20T19:30:25.490Z,65.67
2023-03-20T19:32:52.157Z,65.64
2023-03-20T19:38:05.655Z,66.06
2023-03-20T19:40:42.934Z,66.21
2023-03-20T19:43:10.592Z,66.28
2023-03-20T19:45:38.693Z,66.52
2023-03-20T19:48:27.069Z,66.69
2023-03-20T19:50:54.064Z,67.49
2023-03-20T19:53:22.057Z,67.98
2023-03-20T19:55:48.501Z,68.21
2023-03-20T19:58:15.081Z,67.98
2023-03-20T20:01:12.293Z,68.59
2023-03-20T20:03:29.152Z,68.11
2023-03-20T20:05:55.914Z,69.34
2023-03-20T20:08:37.847Z,69.47
2023-03-20T20:11:11.875Z,69.33
2023-03-20T20:13:57.287Z,69.74
2023-03-20T20:16:25.325Z,69.78
2023-03-20T20:18:51.864Z,69.99
2023-03-20T20:24:04.924Z,70.23
2023-03-20T20:26:38.511Z,70.83
2023-03-20T20:29:06.892Z,70.60
2023-03-20T20:31:33.388Z,71.03
2023-03-20T20:34:51.223Z,71.20
2023-03-20T20:39:32.886Z,71.38
2023-03-20T20:41:59.418Z,72.31
2023-03-20T20:44:25.923Z,71.77
2023-03-20T20:46:52.383Z,71.96
2023-03-20T20:49:20.136Z,72.70
2023-03-20T20:51:47.164Z,72.49
2023-03-20T20:54:14.214Z,72.62
2023-03-20T20:56:40.941Z,72.59
2023-03-20T20:59:07.644Z,72.79
2023-03-20T21:01:34.661Z,73.03
2023-03-20T21:04:02.324Z,73.51
2023-03-20T21:06:57.860Z,73.45
2023-03-20T21:09:15.392Z,73.46
2023-03-20T21:11:41.884Z,73.14
2023-03-20T21:14:08.345Z,72.90
2023-03-20T21:16:34.992Z,73.64
2023-03-20T21:19:01.518Z,73.48
2023-03-20T21:21:28.048Z,74.10
2023-03-20T21:23:55.405Z,74.04
2023-03-20T21:26:21.907Z,74.37
2023-03-20T21:28:48.357Z,74.62
2023-03-20T21:31:25.850Z,74.54
2023-03-20T21:33:54.260Z,73.87
2023-03-20T21:36:21.003Z,74.69
2023-03-20T21:39:08.329Z,74.25
2023-03-20T21:41:34.207Z,74.01
2023-03-20T21:44:01.558Z,74.38
2023-03-20T22:03:11.481Z,76.34
2023-03-20T22:06:38.630Z,75.98
2023-03-20T22:09:20.185Z,76.43
2023-03-20T22:20:21.908Z,76.10
2023-03-20T22:25:46.600Z,75.07
2023-03-20T22:28:36.689Z,75.31
2023-03-20T22:34:16.600Z,74.98
2023-03-20T22:42:28.728Z,75.49
2023-03-20T22:44:59.118Z,75.20
2023-03-20T22:47:21.562Z,76.24
2023-03-20T22:49:48.085Z,76.28
2023-03-20T22:52:29.194Z,75.83
2023-03-20T22:55:00.947Z,76.49
2023-03-20T22:57:40.220Z,75.87
2023-03-20T23:00:10.489Z,76.04
2023-03-20T23:02:37.014Z,76.22
2023-03-20T23:05:03.676Z,76.26
2023-03-20T23:07:30.306Z,75.19
2023-03-20T23:09:56.725Z,75.95
2023-03-20T23:12:23.190Z,75.43
2023-03-20T23:14:49.670Z,75.55
2023-03-20T23:17:16.152Z,75.53
2023-03-20T23:19:50.348Z,76.36
2023-03-20T23:22:19.102Z,75.81
2023-03-20T23:24:45.638Z,75.86
2023-03-20T23:27:12.128Z,76.08
2023-03-20T23:29:38.562Z,76.70
2023-03-20T23:32:05.447Z,76.78
2023-03-20T23:34:31.906Z,77.29
2023-03-20T23:36:58.346Z,77.97
2023-03-20T23:39:24.803Z,77.94
2023-03-20T23:42:08.360Z,77.90
2023-03-20T23:44:44.019Z,77.29
2023-03-20T23:47:20.159Z,77.84
2023-03-20T23:49:47.944Z,77.77
2023-03-20T23:52:14.775Z,77.61
2023-03-20T23:54:41.530Z,78.55
2023-03-20T23:57:08.227Z,78.56
2023-03-20T23:59:34.768Z,78.24
